Create Custom Reports and Graphics: Custom Report

Winters (Shannon)

Current Conditions

8/9/22 4:30 AM (-07:00)
Updated Every 15 Minutes
Temp 49.3 °F   3.7
Daily Min Temp 48.0 °F   3.1
Time of Min Temp 0429
Daily Max Temp 63.8 °F   2.2
Time of Max Temp 0135
Wind Spd 0.1 mph   0.1
Wind Dir W | 260 °
Wind Gust 1.8 mph   1.5
Daily Max Wind 6.5 mph   3.5
Time of Max Wind 0108
Max Wind Dir WSW | 247 °
RH 76 %   9
Dew Pt 42.2 °F   0.6
Solar Rad 0 W/m2   0
Daily Rain 0.00 In
Daily ETo 0.000 in   0.000
Yest MinT 41.9 °F
Yest MaxT 89.0 °F
Yest MaxGst 14.7 mph
Yest ETo 0.21 In
Yest Rain 0.00 In
Monthly Rain 0.01 In
Seasonal Rainfall 0.01 In
BatVolt 12.9 V   0.0
MinBV Day 12.9 V   0.0

Last 365 Observations

Winters (Shannon)

Daily Data | America/Los_Angeles
as of 8/9/22 4:43 AM PDT
Date Daily Max Temp (°F) Time of Max Temp Daily Min Temp (°F) Time of Min Temp Daily Rain (In) Monthly Rain (In) Seasonal Rainfall (In) Daily ETo (in) Daily Solar Rad (Cal/cm2) Daily Max Wind (mph) Time of Max Wind Max Wind Dir (°) Dew Pt (°F) Max RH (%) Min RH (%) Hrs <= 32F (hrs) Hrs <= 28F (hrs) Powdery Mildew Stress (pts) Hrs 70-85F (hrs) Hrs > 95F (hrs) Storm Total (In) Max 1 Min Rain (In) Max 1 Min Rain Time Max 15 Min Rain (In) Max 15 Min Precip Time Max 60 Min Rain (In) Max 60 Min Rain Time MinBV Day (V)
8/8/22 89.0 1347 41.9 0620 0.00 0.01 0.01 0.206 644 14.7 1604 NW | 316 48.1 92 18 0.0 0.0 0 4.26 0.00 - - - - - - - 12.8
8/7/22 90.4 1525 41.7 0623 0.00 0.01 0.01 0.242 648 16.8 1540 E | 89 43.6 93 12 0.0 0.0 0 4.05 0.00 - - - - - - - 12.9
8/6/22 88.6 1513 45.5 0619 0.00 0.01 0.01 0.229 648 15.4 1412 ESE | 108 46.8 98 14 0.0 0.0 0 4.56 0.00 - - - - - - - 12.9
8/5/22 87.4 1507 53.6 0608 0.00 0.01 0.01 0.234 631 18.6 1609 ESE | 103 47.1 91 21 0.0 0.0 0 5.56 0.00 - - - - - - - 12.9
8/4/22 97.9 1456 56.6 0548 0.00 0.01 0.01 0.243 621 14.8 1304 ENE | 67 47.2 85 13 0.0 0.0 10 2.78 2.66 - - - - - - - 12.9
8/3/22 96.7 1415 59.3 0415 0.00 0.01 0.01 0.215 563 13.9 1252 ESE | 113 53.0 77 20 0.0 0.0 20 6.22 0.88 - - - - - - - 12.9
8/2/22 94.5 1527 55.0 0600 0.00 0.01 0.01 0.219 592 11.8 1635 W | 263 54.2 97 24 0.0 0.0 10 5.73 0.00 - - - - - - - 13.0
8/1/22 77.3 1922 58.3 0059 0.01 0.01 0.01 0.054 162 7.3 0727 ESE | 120 61.3 95 53 0.0 0.0 20 12.12 0.00 - 0.01 1206 0.01 1220 0.01 1305 12.9
7/31/22 95.0 1613 61.9 0134 0.00 0.00 0.00 0.233 584 16.4 1155 ESE | 110 56.1 86 21 0.0 0.0 0 4.47 0.00 - - - - - - - 12.9
7/30/22 99.3 1608 59.8 0323 0.00 0.00 0.00 0.196 484 14.0 1124 SE | 126 56.0 87 21 0.0 0.0 0 2.49 3.46 - - - - - - - 12.8
7/29/22 103.3 1455 58.8 0447 0.00 0.00 0.00 0.247 626 13.2 1539 WNW | 302 54.2 87 14 0.0 0.0 0 1.64 6.62 - - - - - - - 12.8
7/28/22 101.1 1400 55.3 0557 0.00 0.00 0.00 0.251 626 14.3 1632 NW | 318 49.2 74 16 0.0 0.0 0 5.58 6.04 - - - - - - - 12.9
7/27/22 96.2 1416 51.4 0603 0.00 0.00 0.00 0.249 643 14.2 1522 WNW | 303 46.0 90 11 0.0 0.0 10 6.43 0.59 - - - - - - - 12.9
7/26/22 97.6 1525 53.9 0421 0.00 0.00 0.00 0.243 620 13.7 1255 E | 98 44.5 81 10 0.0 0.0 0 5.18 2.32 - - - - - - - 12.9
7/25/22 98.8 1427 50.2 0627 0.00 0.00 0.00 0.248 645 15.3 1431 SE | 127 41.2 81 6 0.0 0.0 0 1.65 3.13 - - - - - - - 12.9
7/24/22 98.7 1450 47.2 0609 0.00 0.00 0.00 0.255 683 14.6 1259 ESE | 123 39.8 86 7 0.0 0.0 0 1.62 3.27 - - - - - - - 12.9
7/23/22 97.4 1500 43.3 0529 0.00 0.00 0.00 0.258 682 15.2 1109 ESE | 111 36.4 86 6 0.0 0.0 0 4.10 1.47 - - - - - - - 12.9
7/22/22 93.1 1630 56.5 0613 0.00 0.00 0.00 0.278 691 15.3 1535 WNW | 300 29.1 46 5 0.0 0.0 0 5.04 0.00 - - - - - - - 12.9
7/21/22 95.9 1510 46.0 0609 0.00 0.00 0.00 0.277 688 17.6 1646 WNW | 303 31.8 78 6 0.0 0.0 0 5.04 0.57 - - - - - - - 12.9
7/20/22 97.5 1340 42.0 0554 0.00 0.00 0.00 0.247 680 13.2 1605 WNW | 295 36.1 78 9 0.0 0.0 0 2.21 2.33 - - - - - - - 12.9
7/19/22 95.5 1435 43.9 0606 0.00 0.00 0.00 0.246 681 13.1 1628 W | 272 34.6 78 5 0.0 0.0 0 2.23 0.21 - - - - - - - 12.9
7/18/22 95.3 1335 48.7 0618 0.00 0.00 0.00 0.255 670 14.9 1551 NW | 319 39.8 80 9 0.0 0.0 0 3.21 0.12 - - - - - - - 12.9
7/17/22 96.2 1551 44.6 0557 0.00 0.00 0.00 0.251 683 13.4 1949 W | 277 41.9 90 7 0.0 0.0 0 2.28 1.43 - - - - - - - 12.9
7/16/22 96.9 1601 43.8 0615 0.00 0.00 0.00 0.252 687 11.7 1635 W | 276 42.7 93 7 0.0 0.0 0 2.88 3.68 - - - - - - - 12.9
7/15/22 94.8 1412 43.0 0555 0.00 0.00 0.00 0.250 688 12.1 1520 NW | 306 42.2 89 9 0.0 0.0 10 3.12 0.00 - - - - - - - 12.8
7/14/22 92.5 1310 50.3 0615 0.00 0.00 0.00 0.252 676 14.7 1154 ESE | 118 48.0 95 21 0.0 0.0 20 3.58 0.00 - - - - - - - 12.9
7/13/22 91.8 1510 44.8 0604 0.00 0.00 0.00 0.241 684 13.0 1759 NW | 323 49.8 95 18 0.0 0.0 30 3.60 0.00 - - - - - - - 12.9
7/12/22 95.7 1345 47.7 0620 0.00 0.00 0.00 0.260 690 17.6 1448 WNW | 298 42.2 92 6 0.0 0.0 40 2.31 0.15 - - - - - - - 12.9
7/11/22 100.0 1527 52.1 0548 0.00 0.00 0.00 0.250 678 12.4 1158 NW | 315 47.9 94 11 0.0 0.0 50 1.47 5.44 - - - - - - - 12.9
7/10/22 96.1 1726 47.5 0558 0.00 0.00 0.00 0.244 692 12.0 1837 WSW | 253 46.7 94 12 0.0 0.0 60 2.96 0.69 - - - - - - - 12.9
7/9/22 86.3 1557 54.0 0620 0.00 0.00 0.00 0.251 693 15.3 1140 WNW | 288 47.0 76 22 0.0 0.0 70 7.85 0.00 - - - - - - - 13.0
7/8/22 88.4 1457 49.9 0550 0.00 0.00 0.00 0.245 692 13.8 1801 W | 273 47.7 92 19 0.0 0.0 50 4.51 0.00 - - - - - - - 13.0
7/7/22 82.4 1518 45.8 0538 0.00 0.00 0.00 0.231 693 14.6 1802 WNW | 303 48.2 99 27 0.0 0.0 60 10.00 0.00 - - - - - - - 13.0
7/6/22 77.3 1514 50.8 0604 0.00 0.00 0.00 0.212 676 15.5 1824 NW | 313 50.7 96 38 0.0 0.0 40 7.69 0.00 - - - - - - - 13.0
7/5/22 75.5 1636 54.6 0006 0.00 0.00 0.00 0.129 409 14.1 1841 WNW | 282 53.7 93 42 0.0 0.0 20 6.43 0.00 - - - - - - - 13.0
7/4/22 73.6 1545 52.3 0528 0.00 0.00 0.00 0.106 320 12.2 0200 WNW | 288 51.7 84 44 0.0 0.0 0 3.69 0.00 - - - - - - - 13.0
7/3/22 75.2 1535 49.0 0539 0.00 0.00 0.00 0.210 650 16.9 1419 WNW | 302 42.4 91 23 0.0 0.0 10 5.64 0.00 - - - - - - - 13.0
7/2/22 79.5 1418 41.7 0607 0.00 0.00 0.00 0.244 703 19.0 1247 WNW | 302 41.2 91 15 0.0 0.0 20 9.32 0.00 - - - - - - - 12.9
7/1/22 88.4 1417 42.6 0536 0.00 0.00 0.00 0.244 693 13.6 1246 ESE | 107 44.0 94 17 0.0 0.0 0 4.84 0.00 - - - - - - - 12.9
6/30/22 88.9 1454 45.8 0554 0.00 0.25 18.09 0.245 692 15.0 1354 E | 80 45.3 92 24 0.0 0.0 0 4.38 0.00 - - - - - - - 12.9
6/29/22 92.4 1446 41.4 0558 0.00 0.25 18.09 0.257 717 13.4 1434 ESE | 114 39.6 89 10 0.0 0.0 10 4.18 0.00 - - - - - - - 12.9
6/28/22 88.5 1513 46.4 0544 0.00 0.25 18.09 0.292 727 14.7 1600 NW | 326 28.3 65 5 0.0 0.0 20 5.11 0.00 - - - - - - - 12.9
6/27/22 93.4 1432 41.7 0545 0.00 0.25 18.09 0.293 726 15.8 1332 WNW | 301 33.2 87 7 0.0 0.0 30 4.96 0.00 - - - - - - - 12.8
6/26/22 96.7 1529 44.5 0537 0.00 0.25 18.09 0.260 723 12.8 1253 SE | 134 39.2 93 6 0.0 0.0 40 1.97 2.49 - - - - - - - 12.9
6/25/22 95.1 1551 45.8 0529 0.00 0.25 18.09 0.272 718 18.1 1332 SE | 124 41.0 92 9 0.0 0.0 50 2.44 0.00 - - - - - - - 12.9
6/24/22 95.8 1446 46.4 0555 0.00 0.25 18.09 0.252 704 12.8 1642 WNW | 296 45.9 92 14 0.0 0.0 60 2.37 0.13 - - - - - - - 12.9
6/23/22 91.7 1423 46.2 0557 0.00 0.25 18.09 0.251 706 18.2 1322 ESE | 123 41.1 87 13 0.0 0.0 70 3.19 0.00 - - - - - - - 12.9
6/22/22 98.5 1410 46.9 0556 0.00 0.25 18.09 0.260 707 16.4 1559 ESE | 120 39.2 85 6 0.0 0.0 80 2.77 3.30 - - - - - - - 12.9
6/21/22 94.6 1728 43.0 0549 0.00 0.25 18.09 0.254 720 17.8 1038 E | 95 35.4 90 6 0.0 0.0 90 2.94 0.00 - - - - - - - 12.9
6/20/22 86.1 1640 41.7 0521 0.00 0.25 18.09 0.229 701 12.8 1841 ENE | 59 38.2 92 10 0.0 0.0 100 7.60 0.00 - - - - - - - 12.9
6/19/22 78.3 1637 36.7 0603 0.00 0.25 18.09 0.229 719 16.7 1824 W | 276 39.0 95 17 0.0 0.0 80 8.00 0.00 - - - - - - - 12.9
6/18/22 69.4 1616 37.5 0609 0.00 0.25 18.09 0.197 678 14.9 1915 WNW | 291 37.5 92 24 0.0 0.0 60 0.00 0.00 - - - - - - - 12.9
6/17/22 64.9 1457 41.9 0525 0.00 0.25 18.09 0.191 687 16.9 1735 WNW | 288 36.8 83 28 0.0 0.0 70 0.00 0.00 - - - - - - - 12.9
6/16/22 74.9 1454 45.8 0052 0.00 0.25 18.09 0.235 693 19.0 2339 W | 268 38.5 82 20 0.0 0.0 80 4.98 0.00 - - - - - - - 12.9
6/15/22 86.9 1414 41.3 0540 0.00 0.25 18.09 0.267 715 17.6 2250 WNW | 285 36.7 94 9 0.0 0.0 90 5.12 0.00 - - - - - - - 12.9
6/14/22 82.3 1458 35.9 0558 0.00 0.25 18.09 0.229 723 13.0 1805 NW | 312 36.3 96 8 0.0 0.0 100 9.92 0.00 - - - - - - - 12.9
6/13/22 74.3 1543 43.9 0058 0.00 0.25 18.09 0.219 731 18.9 1616 W | 275 38.5 91 18 0.0 0.0 80 4.40 0.00 - - - - - - - 12.9
6/12/22 68.3 1202 49.4 0059 0.00 0.25 18.09 0.166 560 22.5 2036 W | 277 50.4 84 44 0.0 0.0 90 0.00 0.00 - - - - - - - 13.0
6/11/22 83.8 1540 59.3 0542 0.00 0.25 18.09 0.249 669 19.1 1331 NW | 305 53.2 75 30 0.0 0.0 100 14.59 0.00 - - - - - - - 13.0
6/10/22 89.6 1532 62.5 0608 0.00 0.25 18.09 0.282 689 15.8 1934 W | 260 49.4 72 22 0.0 0.0 100 10.22 0.00 - - - - - - - 13.0
6/9/22 86.3 1451 58.0 0637 0.00 0.25 18.09 0.267 631 18.5 1518 NW | 304 41.0 54 15 0.0 0.0 100 9.49 0.00 - - - - - - - 13.0
6/8/22 82.1 1613 62.4 0335 0.00 0.25 18.09 0.252 651 16.4 1851 W | 268 44.4 58 14 0.0 0.0 100 10.52 0.00 - - - - - - - 13.0
6/7/22 83.5 1350 41.7 0553 0.00 0.25 18.09 0.238 652 16.7 1834 W | 261 39.9 97 12 0.0 0.0 100 11.16 0.00 - - - - - - - 12.9
6/6/22 79.1 1523 48.5 0608 0.00 0.25 18.09 0.229 725 13.2 1409 NW | 315 43.7 92 11 0.0 0.0 100 8.51 0.00 - - - - - - - 13.0
6/5/22 70.4 1424 53.0 0041 0.18 0.25 18.09 0.143 483 16.5 1530 NW | 321 54.0 99 46 0.0 0.0 80 0.06 0.00 0.25 0.01 1344 0.04 0711 0.07 0712 13.0
6/4/22 66.7 1542 50.1 0543 0.07 0.07 17.91 0.095 262 16.7 1511 ESE | 123 42.3 98 26 0.0 0.0 90 0.00 0.00 - 0.01 0051 0.01 0101 0.03 2100 13.0
6/3/22 73.6 1402 55.0 0600 0.00 0.00 17.84 0.181 516 18.7 1129 NW | 312 45.0 73 20 0.0 0.0 100 6.58 0.00 - - - - - - - 12.9
6/2/22 81.3 1504 59.2 2317 0.00 0.00 17.84 0.277 685 18.1 1637 WNW | 300 36.8 58 18 0.0 0.0 100 11.21 0.00 - - - - - - - 13.0
6/1/22 84.1 1418 39.5 0547 0.00 0.00 17.84 0.246 649 17.9 2114 W | 263 36.4 94 15 0.0 0.0 100 11.80 0.00 - - - - - - - 12.9
5/31/22 80.4 1604 33.8 0527 0.00 0.09 17.84 0.226 716 16.0 1124 ENE | 61 31.5 92 10 0.0 0.0 90 9.03 0.00 - - - - - - - 12.9
5/30/22 71.7 1625 38.7 0526 0.00 0.09 17.84 0.224 715 15.8 1835 WNW | 299 33.4 77 20 0.0 0.0 70 2.66 0.00 - - - - - - - 13.0
5/29/22 68.1 1532 43.2 0600 0.00 0.09 17.84 0.210 705 22.0 0144 W | 270 38.1 84 29 0.0 0.0 80 0.00 0.00 - - - - - - - 13.0
5/28/22 61.6 1110 48.2 0056 0.00 0.09 17.84 0.116 360 20.9 2318 W | 267 44.5 85 43 0.0 0.0 90 0.00 0.00 - - - - - - - 13.0
5/27/22 74.2 1238 48.3 0554 0.00 0.09 17.84 0.198 577 18.6 1407 NW | 315 45.8 91 26 0.0 0.0 100 6.68 0.00 - - - - - - - 13.0
5/26/22 79.4 1321 44.0 0602 0.00 0.09 17.84 0.182 480 16.0 1128 NW | 306 43.6 89 21 0.0 0.0 100 11.88 0.00 - - - - - - - 12.9
5/25/22 93.1 1515 47.0 0529 0.00 0.09 17.84 0.240 678 11.8 1526 NW | 316 41.4 92 11 0.0 0.0 80 2.66 0.00 - - - - - - - 12.9
5/24/22 90.5 1724 43.3 0543 0.00 0.09 17.84 0.230 681 10.0 1950 WSW | 254 39.0 91 7 0.0 0.0 90 3.90 0.00 - - - - - - - 12.9
5/23/22 83.0 1545 52.2 0625 0.00 0.09 17.84 0.251 679 17.3 0144 W | 263 38.3 74 15 0.0 0.0 100 11.00 0.00 - - - - - - - 13.0
5/22/22 81.0 1543 42.5 0618 0.00 0.09 17.84 0.247 676 17.3 1507 W | 260 33.7 80 14 0.0 0.0 100 9.97 0.00 - - - - - - - 13.0
5/21/22 79.6 1602 33.9 0547 0.00 0.09 17.84 0.227 700 15.6 1802 WNW | 283 28.5 89 8 0.0 0.0 100 9.71 0.00 - - - - - - - 12.9
5/20/22 72.5 1710 31.8 0602 0.00 0.09 17.84 0.209 721 14.9 0940 SE | 127 21.4 90 8 0.0 0.0 80 4.01 0.00 - - - - - - - 12.9
5/19/22 78.1 1451 49.8 0059 0.00 0.09 17.84 0.281 667 24.1 2150 W | 264 34.1 40 13 0.0 0.0 90 8.70 0.00 - - - - - - - 13.0
5/18/22 85.6 1532 45.2 0520 0.00 0.09 17.84 0.275 665 19.1 1710 WSW | 255 40.3 77 16 0.0 0.0 70 11.95 0.00 - - - - - - - 13.0
5/17/22 81.0 1540 39.9 0620 0.00 0.09 17.84 0.230 680 16.7 1613 WNW | 294 38.0 94 14 0.0 0.0 50 9.74 0.00 - - - - - - - 12.9
5/16/22 74.8 1539 50.8 0414 0.00 0.09 17.84 0.234 679 21.6 0334 W | 270 40.7 71 24 0.0 0.0 40 5.98 0.00 - - - - - - - 13.0
5/15/22 76.5 1547 44.2 0622 0.00 0.09 17.84 0.220 621 17.2 1237 NW | 318 42.9 95 26 0.0 0.0 20 8.09 0.00 - - - - - - - 13.0
5/14/22 82.2 1555 42.6 0527 0.00 0.09 17.84 0.225 669 13.2 0711 WSW | 254 44.0 99 12 0.0 0.0 0 9.86 0.00 - - - - - - - 13.0
5/13/22 70.7 1448 40.3 0545 0.00 0.09 17.84 0.195 649 18.0 1715 W | 260 45.2 97 40 0.0 0.0 0 0.73 0.00 - - - - - - - 12.9
5/12/22 62.6 1610 35.8 0151 0.00 0.09 17.84 0.160 592 15.8 0800 W | 265 34.7 88 31 0.0 0.0 0 0.00 0.00 - - - - - - - 12.9
5/11/22 62.6 1530 28.8 0426 0.00 0.09 17.84 0.178 680 17.2 1551 NW | 311 31.9 98 24 4.7 0.0 0 0.00 0.00 - - - - - - - 12.8
5/10/22 54.6 1346 33.6 0052 0.02 0.09 17.84 0.097 410 15.4 1400 ESE | 107 31.8 96 25 0.0 0.0 0 0.00 0.00 - 0.01 1731 0.01 1745 0.02 1749 12.8
5/9/22 52.5 1321 36.3 0032 0.00 0.07 17.82 0.121 554 20.6 1655 WSW | 253 32.0 89 25 0.0 0.0 0 0.00 0.00 - - - - - - - 12.8
5/8/22 49.2 1507 32.1 0615 0.07 0.07 17.82 0.107 541 30.1 1716 NW | 310 33.4 92 46 0.0 0.0 0 0.00 0.00 - 0.01 2016 0.05 1735 0.06 1820 12.8
5/7/22 62.6 1514 40.6 0058 0.00 0.00 17.75 0.170 633 26.2 2029 WSW | 253 39.0 91 35 0.0 0.0 0 0.00 0.00 - - - - - - - 12.9
5/6/22 66.4 1320 45.9 0022 0.00 0.00 17.75 0.137 482 22.0 1428 W | 264 47.2 94 47 0.0 0.0 10 0.00 0.00 - - - - - - - 12.9
5/5/22 66.5 1257 46.2 0248 0.00 0.00 17.75 0.125 334 17.7 0602 W | 267 41.0 91 20 0.0 0.0 20 0.00 0.00 - - - - - - - 12.9
5/4/22 82.2 1447 38.5 0617 0.00 0.00 17.75 0.215 660 15.3 1553 W | 276 35.9 92 15 0.0 0.0 0 11.02 0.00 - - - - - - - 12.8
5/3/22 76.2 1704 31.6 0612 0.00 0.00 17.75 0.185 665 11.4 1338 ENE | 64 31.6 96 12 0.2 0.0 0 5.73 0.00 - - - - - - - 12.8
5/2/22 60.2 1340 40.6 0059 0.00 0.00 17.75 0.161 556 24.6 0827 W | 276 33.3 83 28 0.0 0.0 0 0.00 0.00 - - - - - - - 12.9
5/1/22 76.1 1741 32.8 0612 0.00 0.00 17.75 0.200 662 15.1 0020 W | 261 30.5 96 7 0.0 0.0 0 5.41 0.00 - - - - - - - 12.8
4/30/22 65.7 1401 46.8 2324 0.00 1.40 17.75 0.179 630 21.0 1321 W | 279 42.6 78 44 0.0 0.0 0 0.00 0.00 - - - - - - - 12.9
4/29/22 69.8 1525 32.3 0559 0.00 1.40 17.75 0.192 621 17.8 2337 W | 272 32.0 93 12 0.0 0.0 0 0.00 0.00 - - - - - - - 12.8
4/28/22 61.6 1530 38.1 0538 0.00 1.40 17.75 0.168 638 22.7 0752 W | 260 33.9 85 30 0.0 0.0 0 0.00 0.00 - - - - - - - 12.8
4/27/22 66.8 1448 41.4 0101 0.00 1.40 17.75 0.188 609 17.9 0153 W | 265 32.7 80 16 0.0 0.0 0 0.00 0.00 - - - - - - - 12.9
4/26/22 67.7 1602 46.6 0701 0.00 1.40 17.75 0.186 630 19.2 0806 W | 275 37.9 76 26 0.0 0.0 0 0.00 0.00 - - - - - - - 12.9
4/25/22 71.6 1510 39.7 0431 0.00 1.40 17.75 0.194 602 17.5 1440 NW | 306 37.7 91 26 0.0 0.0 0 2.65 0.00 - - - - - - - 12.9
4/24/22 73.2 1542 33.7 0644 0.00 1.40 17.75 0.185 614 12.5 1542 WNW | 291 35.1 96 15 0.0 0.0 0 5.29 0.00 - - - - - - - 12.8
4/23/22 68.3 1824 31.2 0635 0.00 1.40 17.75 0.168 621 15.1 1856 W | 276 34.7 97 16 0.8 0.0 0 0.00 0.00 - - - - - - - 12.8
4/22/22 59.1 1628 33.7 0653 0.00 1.40 17.75 0.116 481 13.5 1735 NNW | 335 37.3 99 37 0.0 0.0 0 0.00 0.00 - - - - - - - 12.8
4/21/22 54.5 1314 39.4 2335 0.30 1.40 17.75 0.106 463 20.6 0210 W | 266 37.7 96 43 0.0 0.0 0 0.00 0.00 0.48 0.01 2354 0.08 0239 0.16 0311 12.9
4/20/22 53.9 1243 33.5 0101 0.18 1.10 17.45 0.083 362 20.8 1253 ESE | 106 40.8 99 62 0.0 0.0 0 0.00 0.00 0.18 0.01 1942 0.06 1912 0.14 1949 12.8
4/19/22 55.4 1320 33.0 0049 0.00 0.92 17.27 0.093 369 14.8 1546 W | 265 37.5 97 46 0.0 0.0 0 0.00 0.00 - - - 0.01 0112 0.01 0157 12.9
4/18/22 58.3 1232 31.5 0111 0.17 0.92 17.27 0.084 322 20.7 1438 SW | 236 40.0 94 45 0.1 0.0 0 0.00 0.00 0.17 0.01 0058 0.04 2142 0.09 2218 12.8
4/17/22 65.3 1523 26.6 0649 0.00 0.75 17.10 0.161 625 16.7 1346 E | 98 26.8 98 10 6.3 0.8 0 0.00 0.00 - - - - - - - 12.7
4/16/22 60.3 1528 31.8 0059 0.54 0.75 17.10 0.130 522 18.3 0334 WSW | 254 39.9 98 26 0.0 0.0 0 0.00 0.00 0.54 0.01 1239 0.06 0641 0.16 0709 12.9
4/15/22 58.9 1315 29.4 0633 0.00 0.21 16.56 0.107 423 15.6 1607 WNW | 290 36.1 98 26 1.7 0.0 0 0.00 0.00 - - - - - - - 12.9
4/14/22 52.9 1350 39.6 0058 0.18 0.21 16.56 0.066 274 16.2 1127 W | 275 43.4 96 72 0.0 0.0 10 0.00 0.00 0.18 0.01 1645 0.03 1542 0.05 1627 12.9
4/13/22 49.7 1723 33.6 0334 0.00 0.03 16.38 0.081 371 16.1 1658 W | 269 34.1 89 45 0.0 0.0 20 0.00 0.00 - - - - - - - 12.9
4/12/22 51.0 1635 31.8 0005 0.00 0.03 16.38 0.114 521 20.0 1252 W | 278 26.4 88 30 0.1 0.0 30 0.00 0.00 - - - - - - - 12.9
4/11/22 48.3 0856 34.4 0052 0.03 0.03 16.38 0.110 517 29.1 1206 WNW | 289 31.2 92 33 0.0 0.0 40 0.00 0.00 - 0.01 0922 0.02 0934 0.02 1019 12.9
4/10/22 60.6 1449 33.1 0658 0.00 0.00 16.35 0.163 526 25.5 2040 WNW | 282 23.5 79 10 0.0 0.0 50 0.00 0.00 - - - - - - - 12.9
4/9/22 70.1 1534 35.7 0659 0.00 0.00 16.35 0.173 591 15.5 0313 W | 272 23.9 80 8 0.0 0.0 60 0.00 0.00 - - - - - - - 12.9
4/8/22 79.5 1433 37.5 0643 0.00 0.00 16.35 0.223 564 18.5 1715 WNW | 283 33.5 89 7 0.0 0.0 40 9.72 0.00 - - - - - - - 12.9
4/7/22 84.2 1551 36.8 0620 0.00 0.00 16.35 0.191 553 13.8 1307 ESE | 106 33.9 92 10 0.0 0.0 20 11.66 0.00 - - - - - - - 12.9
4/6/22 82.6 1712 31.4 0700 0.00 0.00 16.35 0.169 565 10.4 1545 NNE | 23 31.4 94 8 0.8 0.0 0 7.51 0.00 - - - - - - - 12.8
4/5/22 69.0 1708 35.2 0057 0.00 0.00 16.35 0.150 560 19.8 0444 WNW | 283 30.8 90 13 0.0 0.0 0 0.00 0.00 - - - - - - - 12.9
4/4/22 58.5 1245 45.7 0048 0.00 0.00 16.35 0.099 303 22.7 0252 WSW | 254 39.5 86 47 0.0 0.0 0 0.00 0.00 - - - - - - - 12.9
4/3/22 72.5 1405 31.5 0643 0.00 0.00 16.35 0.203 556 24.4 2203 W | 278 24.4 96 6 0.3 0.0 0 1.91 0.00 - - - - - - - 12.9
4/2/22 74.2 1601 35.1 0701 0.00 0.00 16.35 0.162 538 13.7 1210 E | 95 30.6 92 10 0.0 0.0 10 5.11 0.00 - - - - - - - 12.9
4/1/22 72.1 1539 31.5 0641 0.00 0.00 16.35 0.166 541 15.4 1627 NW | 311 36.2 98 22 0.1 0.0 20 3.61 0.00 - - - - - - - 12.8
3/31/22 69.0 1547 33.2 0704 0.00 1.31 16.35 0.140 518 12.4 1239 NE | 44 34.8 99 15 0.0 0.0 30 0.00 0.00 - - - - - - - 12.9
3/30/22 62.2 1441 38.9 0734 0.00 1.31 16.35 0.108 415 15.9 0533 W | 276 40.4 96 38 0.0 0.0 40 0.00 0.00 - - - - - - - 12.9
3/29/22 66.1 1442 33.2 0655 0.00 1.31 16.35 0.136 499 16.0 1252 NNW | 329 41.4 100 36 0.0 0.0 50 0.00 0.00 - - - - - - - 12.9
3/28/22 51.0 1153 40.4 2132 0.61 1.31 16.35 0.040 172 13.8 0656 ESE | 109 44.6 99 75 0.0 0.0 60 0.00 0.00 0.96 0.01 1407 0.07 0307 0.13 0435 12.9
3/27/22 60.2 1345 39.0 0602 0.35 0.70 15.74 0.100 353 23.2 1438 SE | 141 38.1 97 38 0.0 0.0 70 0.00 0.00 0.35 0.01 0054 0.05 0031 0.14 0040 12.9
3/26/22 73.7 1553 32.6 0708 0.00 0.35 15.39 0.148 476 13.6 1531 NW | 308 37.6 94 19 0.0 0.0 80 4.87 0.00 - - - - - - - 12.9
3/25/22 78.0 1603 32.8 0704 0.00 0.35 15.39 0.177 527 13.1 0009 W | 259 32.8 96 13 0.0 0.0 60 7.21 0.00 - - - - - - - 12.8
3/24/22 80.7 1545 36.4 0709 0.00 0.35 15.39 0.160 493 15.2 1227 E | 86 39.9 94 17 0.0 0.0 0 8.14 0.00 - - - - - - - 12.8
3/23/22 79.7 1609 40.1 0629 0.00 0.35 15.39 0.178 511 17.0 1404 NW | 320 36.6 92 11 0.0 0.0 0 8.88 0.00 - - - - - - - 12.9
3/22/22 81.0 1500 41.1 0705 0.00 0.35 15.39 0.161 506 16.0 1443 E | 83 39.8 88 19 0.0 0.0 0 9.26 0.00 - - - - - - - 12.9
3/21/22 74.7 1649 41.1 0727 0.00 0.35 15.39 0.153 492 14.1 0349 WNW | 290 34.4 82 26 0.0 0.0 0 3.99 0.00 - - - - - - - 12.9
3/20/22 63.6 1649 29.0 0506 0.00 0.35 15.39 0.138 474 16.9 2109 W | 270 28.4 92 17 0.5 0.0 0 0.00 0.00 - - - - - - - 12.9
3/19/22 54.3 1719 31.6 0051 0.01 0.35 15.39 0.060 230 19.2 0724 W | 280 37.2 94 53 0.1 0.0 0 0.00 0.00 - 0.01 1457 0.01 1511 0.01 1556 12.9
3/18/22 69.2 1530 28.6 0705 0.00 0.34 15.38 0.127 452 10.4 1926 WNW | 294 34.0 95 22 5.1 0.0 0 0.00 0.00 - - - - - - - 12.8
3/17/22 67.3 1424 34.3 0058 0.00 0.34 15.38 0.141 436 16.9 1326 WNW | 301 32.4 90 21 0.0 0.0 0 0.00 0.00 - - - - - - - 12.8
3/16/22 68.7 1709 27.6 0653 0.00 0.34 15.38 0.126 478 11.6 1136 E | 95 31.4 97 16 4.2 0.6 0 0.00 0.00 - - - - - - - 12.9
3/15/22 62.7 1525 45.8 0021 0.10 0.34 15.38 0.108 390 15.8 1330 NW | 314 43.4 97 31 0.0 0.0 0 0.00 0.00 0.10 0.01 0446 0.04 0342 0.08 0421 13.0
3/14/22 68.1 1511 27.6 0731 0.00 0.24 15.28 0.124 444 15.1 1217 E | 93 34.7 94 18 4.3 0.2 0 0.00 0.00 - - - - - - - 12.8
3/13/22 58.6 1556 36.2 2222 0.00 0.24 15.28 0.102 416 18.4 0222 W | 280 33.1 90 23 0.0 0.0 0 0.00 0.00 - - - - - - - 12.9
3/12/22 64.7 1311 21.5 0642 0.00 0.24 15.28 0.116 412 17.0 2202 WNW | 297 19.9 92 3 7.5 6.6 0 0.00 0.00 - - - - - - - 12.8
3/11/22 70.8 1528 21.8 0626 0.00 0.24 15.28 0.124 464 7.5 1825 S | 182 16.7 86 8 8.9 6.9 0 0.22 0.00 - - - - - - - 12.8
3/10/22 62.2 1456 26.5 2322 0.00 0.24 15.28 0.133 470 21.0 0900 E | 81 13.7 91 3 4.5 1.5 0 0.00 0.00 - - - - - - - 12.8
3/9/22 63.8 1350 32.8 0131 0.00 0.24 15.28 0.139 422 17.9 0758 W | 277 28.9 74 25 0.0 0.0 0 0.00 0.00 - - - - - - - 12.9
3/8/22 70.0 1612 26.8 0339 0.00 0.24 15.28 0.129 441 12.2 1659 W | 280 22.6 88 12 7.2 4.4 0 0.00 0.00 - - - - - - - 12.8
3/7/22 64.1 1522 24.8 0307 0.00 0.24 15.28 0.121 440 15.8 1352 E | 100 16.7 88 6 7.8 3.4 0 0.00 0.00 - - - - - - - 12.8
3/6/22 60.0 1607 20.7 0640 0.00 0.24 15.28 0.101 436 10.5 0945 ESE | 115 24.2 98 17 10.3 5.8 0 0.00 0.00 - - - - - - - 12.8
3/5/22 51.0 1542 27.3 2345 0.00 0.24 15.28 0.062 289 15.3 0206 WSW | 257 28.4 97 35 1.6 0.5 0 0.00 0.00 - - - - - - - 12.8
3/4/22 52.4 1211 35.0 2331 0.01 0.24 15.28 0.094 402 25.9 1840 W | 280 35.4 98 25 0.0 0.0 0 0.00 0.00 0.24 0.01 1004 0.01 1018 0.01 1103 12.9
3/3/22 52.1 1542 42.4 0005 0.23 0.23 15.27 0.030 126 9.3 0051 WSW | 250 43.2 98 45 0.0 0.0 0 0.00 0.00 0.23 0.01 1256 0.06 0707 0.11 0738 13.0
3/2/22 68.9 1432 32.4 0240 0.00 0.00 15.04 0.105 375 20.9 1246 WNW | 288 31.8 91 9 0.0 0.0 0 0.00 0.00 - - - - - - - 12.9
3/1/22 72.1 1548 30.7 0644 0.00 0.00 15.04 0.113 389 12.4 0846 W | 270 30.0 94 15 1.4 0.0 0 1.49 0.00 - - - - - - - 12.9
2/28/22 70.7 1602 27.8 0624 0.00 0.04 15.04 0.100 390 9.2 2121 W | 268 33.6 96 27 6.8 0.3 - 0.42 0.00 - - - - - - - 12.9
2/27/22 65.3 1602 26.8 0640 0.00 0.04 15.04 0.089 373 9.2 1515 WNW | 282 31.1 99 17 3.0 0.8 - 0.00 0.00 - - - - - - - 12.9
2/26/22 56.5 1435 17.1 0628 0.04 0.04 15.04 0.062 227 12.6 1251 ESE | 109 24.9 98 23 8.3 8.0 - 0.00 0.00 - 0.01 2114 0.01 2128 0.02 2005 12.8
2/25/22 58.3 1536 18.1 0627 0.00 0.00 15.00 0.088 399 10.6 1132 ESE | 107 18.3 95 13 11.9 10.9 - 0.00 0.00 - - - - - - - 12.8
2/24/22 52.6 1550 13.6 0533 0.00 0.00 15.00 0.079 390 11.1 1511 NW | 311 15.2 93 12 10.2 8.5 - 0.50 0.00 - - - - - - - 12.8
2/23/22 49.0 1515 16.8 2359 0.00 0.08 15.00 0.059 313 11.1 1302 ESE | 102 14.5 90 13 15.0 10.4 0 0.00 0.02 - - - - - - - 12.9
Max 103.3 - 62.5 - 0.61 1.40 18.09 0.293 731 30.1 - - 61.3 100 75 15.0 10.9 - 14.59 6.62 0.96 0.01 - 0.08 - 0.16 - 13.0
Avg - - - - - 0.24 - - - - - - 37.9 - - 0.8 0.4 - 3.52 0.31 0.33 - - - - - - -
Min 48.3 - 13.6 - 0.00 0.00 0.00 0.030 126 7.3 - - 13.7 40 3 0.0 0.0 - 0.00 0.00 0.10 0.01 - 0.01 - 0.01 - 12.7
Total - - - - - - - - - - - - - - - 133.6 69.7 - 587.97 51.00 - - - - - - - -